sensor_id;sensor_type;location;lat;lon;timestamp;temperature;humidity
30280;DHT22;17097;50.916;5.344;2023-12-20T00:00:08;8.60;99.90
30280;DHT22;17097;50.916;5.344;2023-12-20T00:02:34;8.50;99.90
30280;DHT22;17097;50.916;5.344;2023-12-20T00:05:00;8.60;99.90
30280;DHT22;17097;50.916;5.344;2023-12-20T00:07:28;8.40;99.90
30280;DHT22;17097;50.916;5.344;2023-12-20T00:09:53;8.40;99.90
30280;DHT22;17097;50.916;5.344;2023-12-20T00:12:19;8.20;99.90
30280;DHT22;17097;50.916;5.344;2023-12-20T00:14:45;8.10;99.90
30280;DHT22;17097;50.916;5.344;2023-12-20T00:17:10;8.10;99.90
30280;DHT22;17097;50.916;5.344;2023-12-20T00:19:38;8.20;99.90
30280;DHT22;17097;50.916;5.344;2023-12-20T00:22:04;8.20;99.90
30280;DHT22;17097;50.916;5.344;2023-12-20T00:24:31;8.00;99.90
30280;DHT22;17097;50.916;5.344;2023-12-20T00:26:57;8.00;99.90
30280;DHT22;17097;50.916;5.344;2023-12-20T00:29:23;8.00;99.90
30280;DHT22;17097;50.916;5.344;2023-12-20T00:31:48;7.90;99.90
30280;DHT22;17097;50.916;5.344;2023-12-20T00:34:14;7.70;99.90
30280;DHT22;17097;50.916;5.344;2023-12-20T00:36:39;7.60;99.90
30280;DHT22;17097;50.916;5.344;2023-12-20T00:39:07;7.80;99.90
30280;DHT22;17097;50.916;5.344;2023-12-20T00:41:33;7.90;99.90
30280;DHT22;17097;50.916;5.344;2023-12-20T00:43:59;7.80;99.90
30280;DHT22;17097;50.916;5.344;2023-12-20T00:46:26;7.80;99.90
30280;DHT22;17097;50.916;5.344;2023-12-20T00:48:52;7.80;99.90
30280;DHT22;17097;50.916;5.344;2023-12-20T00:51:18;7.70;99.90
30280;DHT22;17097;50.916;5.344;2023-12-20T00:53:43;7.80;99.90
30280;DHT22;17097;50.916;5.344;2023-12-20T00:56:09;7.90;99.90
30280;DHT22;17097;50.916;5.344;2023-12-20T00:58:34;8.00;99.90
30280;DHT22;17097;50.916;5.344;2023-12-20T01:01:00;7.90;99.90
30280;DHT22;17097;50.916;5.344;2023-12-20T01:03:26;7.90;99.90
30280;DHT22;17097;50.916;5.344;2023-12-20T01:05:54;8.00;99.90
30280;DHT22;17097;50.916;5.344;2023-12-20T01:08:19;7.90;99.90
30280;DHT22;17097;50.916;5.344;2023-12-20T01:10:45;7.80;99.90
30280;DHT22;17097;50.916;5.344;2023-12-20T01:13:12;7.80;99.90
30280;DHT22;17097;50.916;5.344;2023-12-20T01:15:37;7.80;99.90
30280;DHT22;17097;50.916;5.344;2023-12-20T01:18:03;7.90;99.90
30280;DHT22;17097;50.916;5.344;2023-12-20T01:20:31;7.90;99.90
30280;DHT22;17097;50.916;5.344;2023-12-20T01:22:57;8.00;99.90
30280;DHT22;17097;50.916;5.344;2023-12-20T01:25:22;8.00;99.90
30280;DHT22;17097;50.916;5.344;2023-12-20T01:27:48;8.10;99.90
30280;DHT22;17097;50.916;5.344;2023-12-20T01:30:16;8.20;99.90
30280;DHT22;17097;50.916;5.344;2023-12-20T01:32:42;8.20;99.90
30280;DHT22;17097;50.916;5.344;2023-12-20T01:35:10;8.10;99.90
30280;DHT22;17097;50.916;5.344;2023-12-20T01:37:37;8.10;99.90
30280;DHT22;17097;50.916;5.344;2023-12-20T01:40:03;8.00;99.90
30280;DHT22;17097;50.916;5.344;2023-12-20T01:42:29;8.10;99.90
30280;DHT22;17097;50.916;5.344;2023-12-20T01:44:57;8.10;99.90
30280;DHT22;17097;50.916;5.344;2023-12-20T01:47:23;8.10;99.90
30280;DHT22;17097;50.916;5.344;2023-12-20T01:49:49;8.00;99.90
30280;DHT22;17097;50.916;5.344;2023-12-20T01:52:15;7.80;99.90
30280;DHT22;17097;50.916;5.344;2023-12-20T01:54:41;7.80;99.90
30280;DHT22;17097;50.916;5.344;2023-12-20T01:57:08;8.00;99.90
30280;DHT22;17097;50.916;5.344;2023-12-20T01:59:37;7.90;99.90
30280;DHT22;17097;50.916;5.344;2023-12-20T02:02:07;7.80;99.90
30280;DHT22;17097;50.916;5.344;2023-12-20T02:04:33;7.70;99.90
30280;DHT22;17097;50.916;5.344;2023-12-20T02:06:59;7.70;99.90
30280;DHT22;17097;50.916;5.344;2023-12-20T02:09:25;7.80;99.90
30280;DHT22;17097;50.916;5.344;2023-12-20T02:11:52;7.90;99.90
30280;DHT22;17097;50.916;5.344;2023-12-20T02:14:17;7.80;99.90
30280;DHT22;17097;50.916;5.344;2023-12-20T02:16:45;7.70;99.90
30280;DHT22;17097;50.916;5.344;2023-12-20T02:19:16;7.70;99.90
30280;DHT22;17097;50.916;5.344;2023-12-20T02:21:45;7.50;99.90
30280;DHT22;17097;50.916;5.344;2023-12-20T02:24:10;7.50;99.90
30280;DHT22;17097;50.916;5.344;2023-12-20T02:26:36;7.60;99.90
30280;DHT22;17097;50.916;5.344;2023-12-20T02:29:02;7.60;99.90
30280;DHT22;17097;50.916;5.344;2023-12-20T02:31:28;7.50;99.90
30280;DHT22;17097;50.916;5.344;2023-12-20T02:33:53;7.50;99.90
30280;DHT22;17097;50.916;5.344;2023-12-20T02:36:19;7.50;99.90
30280;DHT22;17097;50.916;5.344;2023-12-20T02:38:44;7.50;99.90
30280;DHT22;17097;50.916;5.344;2023-12-20T02:41:10;7.50;99.90
30280;DHT22;17097;50.916;5.344;2023-12-20T02:43:35;7.60;99.90
30280;DHT22;17097;50.916;5.344;2023-12-20T02:46:01;7.50;99.90
30280;DHT22;17097;50.916;5.344;2023-12-20T02:48:27;7.50;99.90
30280;DHT22;17097;50.916;5.344;2023-12-20T02:50:55;7.60;99.90
30280;DHT22;17097;50.916;5.344;2023-12-20T02:53:23;7.40;99.90
30280;DHT22;17097;50.916;5.344;2023-12-20T02:55:48;7.20;99.90
30280;DHT22;17097;50.916;5.344;2023-12-20T02:58:14;7.20;99.90
30280;DHT22;17097;50.916;5.344;2023-12-20T03:00:43;7.30;99.90
30280;DHT22;17097;50.916;5.344;2023-12-20T03:03:09;7.30;99.90
30280;DHT22;17097;50.916;5.344;2023-12-20T03:05:34;7.20;99.90
30280;DHT22;17097;50.916;5.344;2023-12-20T03:08:00;7.20;99.90
30280;DHT22;17097;50.916;5.344;2023-12-20T03:10:27;7.20;99.90
30280;DHT22;17097;50.916;5.344;2023-12-20T03:12:53;7.30;99.90
30280;DHT22;17097;50.916;5.344;2023-12-20T03:15:19;7.30;99.90
30280;DHT22;17097;50.916;5.344;2023-12-20T03:17:45;7.40;99.90
30280;DHT22;17097;50.916;5.344;2023-12-20T03:20:10;7.30;99.90
30280;DHT22;17097;50.916;5.344;2023-12-20T03:22:36;7.40;99.90
30280;DHT22;17097;50.916;5.344;2023-12-20T03:25:01;7.30;99.90
30280;DHT22;17097;50.916;5.344;2023-12-20T03:27:27;7.40;99.90
30280;DHT22;17097;50.916;5.344;2023-12-20T03:29:53;7.40;99.90
30280;DHT22;17097;50.916;5.344;2023-12-20T03:32:20;7.40;99.90
30280;DHT22;17097;50.916;5.344;2023-12-20T03:34:46;7.30;99.90
30280;DHT22;17097;50.916;5.344;2023-12-20T03:37:16;7.30;99.90
30280;DHT22;17097;50.916;5.344;2023-12-20T03:39:42;7.50;99.90
30280;DHT22;17097;50.916;5.344;2023-12-20T03:42:07;7.50;99.90
30280;DHT22;17097;50.916;5.344;2023-12-20T03:44:33;7.30;99.90
30280;DHT22;17097;50.916;5.344;2023-12-20T03:46:58;7.40;99.90
30280;DHT22;17097;50.916;5.344;2023-12-20T03:49:24;7.40;99.90
30280;DHT22;17097;50.916;5.344;2023-12-20T03:51:50;7.30;99.90
30280;DHT22;17097;50.916;5.344;2023-12-20T03:54:15;7.30;99.90
30280;DHT22;17097;50.916;5.344;2023-12-20T03:56:41;7.40;99.90
30280;DHT22;17097;50.916;5.344;2023-12-20T03:59:06;7.30;99.90
30280;DHT22;17097;50.916;5.344;2023-12-20T04:01:32;7.50;99.90
30280;DHT22;17097;50.916;5.344;2023-12-20T04:04:00;7.40;99.90
30280;DHT22;17097;50.916;5.344;2023-12-20T04:06:25;7.40;99.90
30280;DHT22;17097;50.916;5.344;2023-12-20T04:08:53;7.40;99.90
30280;DHT22;17097;50.916;5.344;2023-12-20T04:11:19;7.40;99.90
30280;DHT22;17097;50.916;5.344;2023-12-20T04:13:44;7.50;99.90
30280;DHT22;17097;50.916;5.344;2023-12-20T04:16:10;7.50;99.90
30280;DHT22;17097;50.916;5.344;2023-12-20T04:18:35;7.50;99.90
30280;DHT22;17097;50.916;5.344;2023-12-20T04:21:04;7.60;99.90
30280;DHT22;17097;50.916;5.344;2023-12-20T04:23:29;7.50;99.90
30280;DHT22;17097;50.916;5.344;2023-12-20T04:25:55;7.70;99.90
30280;DHT22;17097;50.916;5.344;2023-12-20T04:28:22;7.60;99.90
30280;DHT22;17097;50.916;5.344;2023-12-20T04:30:48;7.60;99.90
30280;DHT22;17097;50.916;5.344;2023-12-20T04:33:14;7.50;99.90
30280;DHT22;17097;50.916;5.344;2023-12-20T04:35:39;7.50;99.90
30280;DHT22;17097;50.916;5.344;2023-12-20T04:38:06;7.50;99.90
30280;DHT22;17097;50.916;5.344;2023-12-20T04:40:32;7.40;99.90
30280;DHT22;17097;50.916;5.344;2023-12-20T04:42:57;7.40;99.90
30280;DHT22;17097;50.916;5.344;2023-12-20T04:45:23;7.40;99.90
30280;DHT22;17097;50.916;5.344;2023-12-20T04:47:50;7.40;99.90
30280;DHT22;17097;50.916;5.344;2023-12-20T04:50:16;7.40;99.90
30280;DHT22;17097;50.916;5.344;2023-12-20T04:52:42;7.50;99.90
30280;DHT22;17097;50.916;5.344;2023-12-20T04:55:10;7.60;99.90
30280;DHT22;17097;50.916;5.344;2023-12-20T04:57:38;7.50;99.90
30280;DHT22;17097;50.916;5.344;2023-12-20T05:00:04;7.60;99.90
30280;DHT22;17097;50.916;5.344;2023-12-20T05:02:32;7.60;99.90
30280;DHT22;17097;50.916;5.344;2023-12-20T05:04:58;7.50;99.90
30280;DHT22;17097;50.916;5.344;2023-12-20T05:07:23;7.40;99.90
30280;DHT22;17097;50.916;5.344;2023-12-20T05:09:51;7.40;99.90
30280;DHT22;17097;50.916;5.344;2023-12-20T05:12:17;7.50;99.90
30280;DHT22;17097;50.916;5.344;2023-12-20T05:14:43;7.50;99.90
30280;DHT22;17097;50.916;5.344;2023-12-20T05:17:10;7.50;99.90
30280;DHT22;17097;50.916;5.344;2023-12-20T05:19:36;7.50;99.90
30280;DHT22;17097;50.916;5.344;2023-12-20T05:22:02;7.50;99.90
30280;DHT22;17097;50.916;5.344;2023-12-20T05:24:28;7.50;99.90
30280;DHT22;17097;50.916;5.344;2023-12-20T05:26:53;7.50;99.90
30280;DHT22;17097;50.916;5.344;2023-12-20T05:29:19;7.50;99.90
30280;DHT22;17097;50.916;5.344;2023-12-20T05:31:47;7.50;99.90
30280;DHT22;17097;50.916;5.344;2023-12-20T05:34:13;7.50;99.90
30280;DHT22;17097;50.916;5.344;2023-12-20T05:36:38;7.50;99.90
30280;DHT22;17097;50.916;5.344;2023-12-20T05:39:04;7.40;99.90
30280;DHT22;17097;50.916;5.344;2023-12-20T05:41:31;7.50;99.90
30280;DHT22;17097;50.916;5.344;2023-12-20T05:43:56;7.50;99.90
30280;DHT22;17097;50.916;5.344;2023-12-20T05:46:25;7.40;99.90
30280;DHT22;17097;50.916;5.344;2023-12-20T05:48:51;7.50;99.90
30280;DHT22;17097;50.916;5.344;2023-12-20T05:51:17;7.50;99.90
30280;DHT22;17097;50.916;5.344;2023-12-20T05:53:43;7.50;99.90
30280;DHT22;17097;50.916;5.344;2023-12-20T05:56:12;7.30;99.90
30280;DHT22;17097;50.916;5.344;2023-12-20T05:58:38;7.40;99.90
30280;DHT22;17097;50.916;5.344;2023-12-20T06:01:05;7.40;99.90
30280;DHT22;17097;50.916;5.344;2023-12-20T06:03:31;7.30;99.90
30280;DHT22;17097;50.916;5.344;2023-12-20T06:05:56;7.30;99.90
30280;DHT22;17097;50.916;5.344;2023-12-20T06:08:22;7.30;99.90
30280;DHT22;17097;50.916;5.344;2023-12-20T06:10:50;7.20;99.90
30280;DHT22;17097;50.916;5.344;2023-12-20T06:13:17;7.30;99.90
30280;DHT22;17097;50.916;5.344;2023-12-20T06:15:42;7.30;99.90
30280;DHT22;17097;50.916;5.344;2023-12-20T06:18:08;7.20;99.90
30280;DHT22;17097;50.916;5.344;2023-12-20T06:20:33;7.10;99.90
30280;DHT22;17097;50.916;5.344;2023-12-20T06:22:59;7.10;99.90
30280;DHT22;17097;50.916;5.344;2023-12-20T06:25:25;7.00;99.90
30280;DHT22;17097;50.916;5.344;2023-12-20T06:27:51;7.00;99.90
30280;DHT22;17097;50.916;5.344;2023-12-20T06:30:16;7.00;99.90
30280;DHT22;17097;50.916;5.344;2023-12-20T06:32:44;7.00;99.90
30280;DHT22;17097;50.916;5.344;2023-12-20T06:35:12;7.00;99.90
30280;DHT22;17097;50.916;5.344;2023-12-20T06:37:40;7.00;99.90
30280;DHT22;17097;50.916;5.344;2023-12-20T06:40:09;7.10;99.90
30280;DHT22;17097;50.916;5.344;2023-12-20T06:42:35;7.00;99.90
30280;DHT22;17097;50.916;5.344;2023-12-20T06:45:01;7.20;99.90
30280;DHT22;17097;50.916;5.344;2023-12-20T06:47:27;7.30;99.90
30280;DHT22;17097;50.916;5.344;2023-12-20T06:49:53;7.30;99.90
30280;DHT22;17097;50.916;5.344;2023-12-20T06:52:18;7.30;99.90
30280;DHT22;17097;50.916;5.344;2023-12-20T06:54:44;7.20;99.90
30280;DHT22;17097;50.916;5.344;2023-12-20T06:57:10;7.40;99.90
30280;DHT22;17097;50.916;5.344;2023-12-20T06:59:40;7.40;99.90
30280;DHT22;17097;50.916;5.344;2023-12-20T07:02:06;7.30;99.90
30280;DHT22;17097;50.916;5.344;2023-12-20T07:04:34;7.20;99.90
30280;DHT22;17097;50.916;5.344;2023-12-20T07:06:59;7.20;99.90
30280;DHT22;17097;50.916;5.344;2023-12-20T07:09:28;7.20;99.90
30280;DHT22;17097;50.916;5.344;2023-12-20T07:11:56;7.20;99.90
30280;DHT22;17097;50.916;5.344;2023-12-20T07:14:22;7.20;99.90
30280;DHT22;17097;50.916;5.344;2023-12-20T07:16:47;7.20;99.90
30280;DHT22;17097;50.916;5.344;2023-12-20T07:19:17;7.30;99.90
30280;DHT22;17097;50.916;5.344;2023-12-20T07:21:43;7.20;99.90
30280;DHT22;17097;50.916;5.344;2023-12-20T07:24:09;7.20;99.90
30280;DHT22;17097;50.916;5.344;2023-12-20T07:26:35;7.00;99.90
30280;DHT22;17097;50.916;5.344;2023-12-20T07:29:03;7.00;99.90
30280;DHT22;17097;50.916;5.344;2023-12-20T07:31:32;7.00;99.90
30280;DHT22;17097;50.916;5.344;2023-12-20T07:33:57;6.90;99.90
30280;DHT22;17097;50.916;5.344;2023-12-20T07:36:23;6.90;99.90
30280;DHT22;17097;50.916;5.344;2023-12-20T07:38:54;7.00;99.90
30280;DHT22;17097;50.916;5.344;2023-12-20T07:41:20;6.90;99.90
30280;DHT22;17097;50.916;5.344;2023-12-20T07:43:49;6.90;99.90
30280;DHT22;17097;50.916;5.344;2023-12-20T07:46:14;6.90;99.90
30280;DHT22;17097;50.916;5.344;2023-12-20T07:48:43;6.90;99.90
30280;DHT22;17097;50.916;5.344;2023-12-20T07:51:09;6.90;99.90
30280;DHT22;17097;50.916;5.344;2023-12-20T07:53:35;6.90;99.90
30280;DHT22;17097;50.916;5.344;2023-12-20T07:56:01;7.00;99.90
30280;DHT22;17097;50.916;5.344;2023-12-20T07:58:26;7.10;99.90
30280;DHT22;17097;50.916;5.344;2023-12-20T08:00:52;7.00;99.90
30280;DHT22;17097;50.916;5.344;2023-12-20T08:03:17;7.20;99.90
30280;DHT22;17097;50.916;5.344;2023-12-20T08:05:43;7.20;99.90
30280;DHT22;17097;50.916;5.344;2023-12-20T08:08:11;7.30;99.90
30280;DHT22;17097;50.916;5.344;2023-12-20T08:10:37;7.40;99.90
30280;DHT22;17097;50.916;5.344;2023-12-20T08:13:02;7.30;99.90
30280;DHT22;17097;50.916;5.344;2023-12-20T08:15:28;7.30;99.90
30280;DHT22;17097;50.916;5.344;2023-12-20T08:17:54;7.20;99.90
30280;DHT22;17097;50.916;5.344;2023-12-20T08:20:19;7.30;99.90
30280;DHT22;17097;50.916;5.344;2023-12-20T08:22:47;7.50;99.90
30280;DHT22;17097;50.916;5.344;2023-12-20T08:25:13;7.90;99.90
30280;DHT22;17097;50.916;5.344;2023-12-20T08:27:41;8.10;99.90
30280;DHT22;17097;50.916;5.344;2023-12-20T08:30:08;8.30;99.90
30280;DHT22;17097;50.916;5.344;2023-12-20T08:32:37;8.50;99.90
30280;DHT22;17097;50.916;5.344;2023-12-20T08:35:03;8.70;99.90
30280;DHT22;17097;50.916;5.344;2023-12-20T08:37:30;9.00;99.90
30280;DHT22;17097;50.916;5.344;2023-12-20T08:39:56;9.00;99.90
30280;DHT22;17097;50.916;5.344;2023-12-20T08:42:21;9.10;99.90
30280;DHT22;17097;50.916;5.344;2023-12-20T08:44:50;9.00;99.90
30280;DHT22;17097;50.916;5.344;2023-12-20T08:47:15;9.10;99.90
30280;DHT22;17097;50.916;5.344;2023-12-20T08:49:44;9.10;99.90
30280;DHT22;17097;50.916;5.344;2023-12-20T08:52:09;9.10;99.90
30280;DHT22;17097;50.916;5.344;2023-12-20T08:54:37;9.20;99.90
30280;DHT22;17097;50.916;5.344;2023-12-20T08:57:03;9.20;99.90
30280;DHT22;17097;50.916;5.344;2023-12-20T08:59:31;9.20;99.90
30280;DHT22;17097;50.916;5.344;2023-12-20T09:01:57;9.20;99.90
30280;DHT22;17097;50.916;5.344;2023-12-20T09:04:22;9.00;99.90
30280;DHT22;17097;50.916;5.344;2023-12-20T09:06:48;8.90;99.90
30280;DHT22;17097;50.916;5.344;2023-12-20T09:09:14;8.70;99.90
30280;DHT22;17097;50.916;5.344;2023-12-20T09:11:40;8.60;99.90
30280;DHT22;17097;50.916;5.344;2023-12-20T09:14:09;8.40;99.90
30280;DHT22;17097;50.916;5.344;2023-12-20T09:16:35;8.40;99.90
30280;DHT22;17097;50.916;5.344;2023-12-20T09:19:00;8.40;99.90
30280;DHT22;17097;50.916;5.344;2023-12-20T09:21:26;8.90;99.90
30280;DHT22;17097;50.916;5.344;2023-12-20T09:23:52;9.20;99.90
30280;DHT22;17097;50.916;5.344;2023-12-20T09:26:17;9.50;99.90
30280;DHT22;17097;50.916;5.344;2023-12-20T09:28:43;9.90;99.90
30280;DHT22;17097;50.916;5.344;2023-12-20T09:31:09;10.20;99.90
30280;DHT22;17097;50.916;5.344;2023-12-20T09:33:35;11.00;99.90
30280;DHT22;17097;50.916;5.344;2023-12-20T09:36:00;11.50;99.90
30280;DHT22;17097;50.916;5.344;2023-12-20T09:38:26;12.20;99.90
30280;DHT22;17097;50.916;5.344;2023-12-20T09:40:52;12.30;99.90
30280;DHT22;17097;50.916;5.344;2023-12-20T09:43:20;13.20;99.90
30280;DHT22;17097;50.916;5.344;2023-12-20T09:45:53;13.50;99.90
30280;DHT22;17097;50.916;5.344;2023-12-20T09:48:19;14.20;99.90
30280;DHT22;17097;50.916;5.344;2023-12-20T09:50:46;15.00;99.90
30280;DHT22;17097;50.916;5.344;2023-12-20T09:53:15;15.40;99.90
30280;DHT22;17097;50.916;5.344;2023-12-20T09:55:44;15.50;99.90
30280;DHT22;17097;50.916;5.344;2023-12-20T09:58:10;15.50;99.90
30280;DHT22;17097;50.916;5.344;2023-12-20T10:00:38;15.00;99.90
30280;DHT22;17097;50.916;5.344;2023-12-20T10:03:03;14.00;99.90
30280;DHT22;17097;50.916;5.344;2023-12-20T10:05:32;13.80;99.90
30280;DHT22;17097;50.916;5.344;2023-12-20T10:07:58;14.10;99.90
30280;DHT22;17097;50.916;5.344;2023-12-20T10:10:25;14.20;99.90
30280;DHT22;17097;50.916;5.344;2023-12-20T10:13:09;13.90;99.90
30280;DHT22;17097;50.916;5.344;2023-12-20T10:15:38;14.00;99.90
30280;DHT22;17097;50.916;5.344;2023-12-20T10:18:06;13.90;99.90
30280;DHT22;17097;50.916;5.344;2023-12-20T10:20:32;13.30;99.90
30280;DHT22;17097;50.916;5.344;2023-12-20T10:22:59;12.70;99.90
30280;DHT22;17097;50.916;5.344;2023-12-20T10:25:26;12.30;99.90
30280;DHT22;17097;50.916;5.344;2023-12-20T10:28:09;11.80;99.90
30280;DHT22;17097;50.916;5.344;2023-12-20T10:30:35;11.50;99.90
30280;DHT22;17097;50.916;5.344;2023-12-20T10:33:01;11.30;99.90
30280;DHT22;17097;50.916;5.344;2023-12-20T10:35:29;10.90;99.90
30280;DHT22;17097;50.916;5.344;2023-12-20T10:37:56;10.80;99.90
30280;DHT22;17097;50.916;5.344;2023-12-20T10:40:22;10.80;99.90
30280;DHT22;17097;50.916;5.344;2023-12-20T10:42:48;10.80;99.90
30280;DHT22;17097;50.916;5.344;2023-12-20T10:45:16;10.90;99.90
30280;DHT22;17097;50.916;5.344;2023-12-20T10:47:46;10.70;99.90
30280;DHT22;17097;50.916;5.344;2023-12-20T10:50:12;10.50;99.90
30280;DHT22;17097;50.916;5.344;2023-12-20T10:52:39;10.20;99.90
30280;DHT22;17097;50.916;5.344;2023-12-20T10:55:11;10.20;99.90
30280;DHT22;17097;50.916;5.344;2023-12-20T10:57:36;10.10;99.90
30280;DHT22;17097;50.916;5.344;2023-12-20T11:00:02;9.80;99.90
30280;DHT22;17097;50.916;5.344;2023-12-20T11:02:38;9.70;99.90
30280;DHT22;17097;50.916;5.344;2023-12-20T11:05:28;9.60;99.90
30280;DHT22;17097;50.916;5.344;2023-12-20T11:08:07;9.60;99.90
30280;DHT22;17097;50.916;5.344;2023-12-20T11:13:36;9.50;99.90
30280;DHT22;17097;50.916;5.344;2023-12-20T11:16:03;9.50;99.90
30280;DHT22;17097;50.916;5.344;2023-12-20T11:18:30;9.30;99.90
30280;DHT22;17097;50.916;5.344;2023-12-20T11:21:00;9.30;99.90
30280;DHT22;17097;50.916;5.344;2023-12-20T11:23:27;9.40;99.90
30280;DHT22;17097;50.916;5.344;2023-12-20T11:25:56;9.50;99.90
30280;DHT22;17097;50.916;5.344;2023-12-20T11:28:26;9.60;99.90
30280;DHT22;17097;50.916;5.344;2023-12-20T11:30:56;9.60;99.90
30280;DHT22;17097;50.916;5.344;2023-12-20T11:33:23;9.60;99.90
30280;DHT22;17097;50.916;5.344;2023-12-20T11:35:50;9.50;99.90
30280;DHT22;17097;50.916;5.344;2023-12-20T11:38:16;9.50;99.90
30280;DHT22;17097;50.916;5.344;2023-12-20T11:40:47;9.40;99.90
30280;DHT22;17097;50.916;5.344;2023-12-20T11:43:34;9.30;99.90
30280;DHT22;17097;50.916;5.344;2023-12-20T11:46:04;9.20;99.90
30280;DHT22;17097;50.916;5.344;2023-12-20T11:48:31;9.20;99.90
30280;DHT22;17097;50.916;5.344;2023-12-20T11:50:59;9.20;99.90
30280;DHT22;17097;50.916;5.344;2023-12-20T11:53:25;9.40;99.90
30280;DHT22;17097;50.916;5.344;2023-12-20T11:55:50;9.30;99.90
30280;DHT22;17097;50.916;5.344;2023-12-20T11:58:18;9.30;99.90
30280;DHT22;17097;50.916;5.344;2023-12-20T12:00:48;9.30;99.90
30280;DHT22;17097;50.916;5.344;2023-12-20T12:03:15;9.30;99.90
30280;DHT22;17097;50.916;5.344;2023-12-20T12:05:41;9.40;99.90
30280;DHT22;17097;50.916;5.344;2023-12-20T12:08:07;9.30;99.90
30280;DHT22;17097;50.916;5.344;2023-12-20T12:10:35;9.20;99.90
30280;DHT22;17097;50.916;5.344;2023-12-20T12:13:00;9.30;99.90
30280;DHT22;17097;50.916;5.344;2023-12-20T12:15:29;9.30;99.90
30280;DHT22;17097;50.916;5.344;2023-12-20T12:17:55;9.10;99.90
30280;DHT22;17097;50.916;5.344;2023-12-20T12:20:24;9.10;99.90
30280;DHT22;17097;50.916;5.344;2023-12-20T12:23:03;9.10;99.90
30280;DHT22;17097;50.916;5.344;2023-12-20T12:25:31;9.00;99.90
30280;DHT22;17097;50.916;5.344;2023-12-20T12:27:59;9.20;99.90
30280;DHT22;17097;50.916;5.344;2023-12-20T12:30:25;9.20;99.90
30280;DHT22;17097;50.916;5.344;2023-12-20T12:32:52;9.30;99.90
30280;DHT22;17097;50.916;5.344;2023-12-20T12:35:21;9.10;99.90
30280;DHT22;17097;50.916;5.344;2023-12-20T12:37:47;9.10;99.90
30280;DHT22;17097;50.916;5.344;2023-12-20T12:40:16;9.10;99.90
30280;DHT22;17097;50.916;5.344;2023-12-20T12:42:44;9.10;99.90
30280;DHT22;17097;50.916;5.344;2023-12-20T12:45:11;9.20;99.90
30280;DHT22;17097;50.916;5.344;2023-12-20T12:47:37;9.20;99.90
30280;DHT22;17097;50.916;5.344;2023-12-20T12:50:03;9.30;99.90
30280;DHT22;17097;50.916;5.344;2023-12-20T12:52:30;9.20;99.90
30280;DHT22;17097;50.916;5.344;2023-12-20T12:54:55;9.30;99.90
30280;DHT22;17097;50.916;5.344;2023-12-20T12:57:23;9.10;99.90
30280;DHT22;17097;50.916;5.344;2023-12-20T12:59:52;9.20;99.90
30280;DHT22;17097;50.916;5.344;2023-12-20T13:02:17;9.20;99.90
30280;DHT22;17097;50.916;5.344;2023-12-20T13:04:44;9.30;99.90
30280;DHT22;17097;50.916;5.344;2023-12-20T13:07:12;9.40;99.90
30280;DHT22;17097;50.916;5.344;2023-12-20T13:09:40;9.40;99.90
30280;DHT22;17097;50.916;5.344;2023-12-20T13:12:06;9.30;99.90
30280;DHT22;17097;50.916;5.344;2023-12-20T13:14:33;9.20;99.90
30280;DHT22;17097;50.916;5.344;2023-12-20T13:17:03;9.20;99.90
30280;DHT22;17097;50.916;5.344;2023-12-20T13:19:29;9.30;99.90
30280;DHT22;17097;50.916;5.344;2023-12-20T13:21:56;9.30;99.90
30280;DHT22;17097;50.916;5.344;2023-12-20T13:24:23;9.40;99.90
30280;DHT22;17097;50.916;5.344;2023-12-20T13:26:49;9.40;99.90
30280;DHT22;17097;50.916;5.344;2023-12-20T13:29:14;9.50;99.90
30280;DHT22;17097;50.916;5.344;2023-12-20T13:31:43;9.60;99.90
30280;DHT22;17097;50.916;5.344;2023-12-20T13:34:08;9.70;99.90
30280;DHT22;17097;50.916;5.344;2023-12-20T13:36:35;9.80;99.90
30280;DHT22;17097;50.916;5.344;2023-12-20T13:39:02;9.90;99.90
30280;DHT22;17097;50.916;5.344;2023-12-20T13:41:28;9.90;99.90
30280;DHT22;17097;50.916;5.344;2023-12-20T13:43:54;10.00;99.90
30280;DHT22;17097;50.916;5.344;2023-12-20T13:46:19;9.80;99.90
30280;DHT22;17097;50.916;5.344;2023-12-20T13:48:45;9.80;99.90
30280;DHT22;17097;50.916;5.344;2023-12-20T13:51:11;9.90;99.90
30280;DHT22;17097;50.916;5.344;2023-12-20T13:53:39;9.90;99.90
30280;DHT22;17097;50.916;5.344;2023-12-20T13:56:04;10.00;99.90
30280;DHT22;17097;50.916;5.344;2023-12-20T13:58:30;10.10;99.90
30280;DHT22;17097;50.916;5.344;2023-12-20T14:00:56;10.10;99.90
30280;DHT22;17097;50.916;5.344;2023-12-20T14:03:22;10.00;99.90
30280;DHT22;17097;50.916;5.344;2023-12-20T14:05:47;9.80;99.90
30280;DHT22;17097;50.916;5.344;2023-12-20T14:08:13;9.60;99.90
30280;DHT22;17097;50.916;5.344;2023-12-20T14:10:38;9.60;99.90
30280;DHT22;17097;50.916;5.344;2023-12-20T14:13:07;9.60;99.90
30280;DHT22;17097;50.916;5.344;2023-12-20T14:15:33;9.70;99.90
30280;DHT22;17097;50.916;5.344;2023-12-20T14:18:06;9.60;99.90
30280;DHT22;17097;50.916;5.344;2023-12-20T14:20:33;9.50;99.90
30280;DHT22;17097;50.916;5.344;2023-12-20T14:23:01;9.50;99.90
30280;DHT22;17097;50.916;5.344;2023-12-20T14:25:27;9.50;99.90
30280;DHT22;17097;50.916;5.344;2023-12-20T14:27:53;9.50;99.90
30280;DHT22;17097;50.916;5.344;2023-12-20T14:30:23;9.40;99.90
30280;DHT22;17097;50.916;5.344;2023-12-20T14:32:49;9.40;99.90
30280;DHT22;17097;50.916;5.344;2023-12-20T14:35:15;9.40;99.90
30280;DHT22;17097;50.916;5.344;2023-12-20T14:37:45;9.50;99.90
30280;DHT22;17097;50.916;5.344;2023-12-20T14:40:11;9.60;99.90
30280;DHT22;17097;50.916;5.344;2023-12-20T14:42:41;9.60;99.90
30280;DHT22;17097;50.916;5.344;2023-12-20T14:45:07;9.70;99.90
30280;DHT22;17097;50.916;5.344;2023-12-20T14:47:35;9.80;99.90
30280;DHT22;17097;50.916;5.344;2023-12-20T14:50:03;9.80;99.90
30280;DHT22;17097;50.916;5.344;2023-12-20T14:52:30;9.70;99.90
30280;DHT22;17097;50.916;5.344;2023-12-20T14:54:55;9.60;99.90
30280;DHT22;17097;50.916;5.344;2023-12-20T14:57:21;9.70;99.90
30280;DHT22;17097;50.916;5.344;2023-12-20T14:59:47;9.80;99.90
30280;DHT22;17097;50.916;5.344;2023-12-20T15:02:12;9.80;99.90
30280;DHT22;17097;50.916;5.344;2023-12-20T15:04:38;9.80;99.90
30280;DHT22;17097;50.916;5.344;2023-12-20T15:07:03;9.80;99.90
30280;DHT22;17097;50.916;5.344;2023-12-20T15:09:31;9.70;99.90
30280;DHT22;17097;50.916;5.344;2023-12-20T15:11:57;9.60;99.90
30280;DHT22;17097;50.916;5.344;2023-12-20T15:14:23;9.50;99.90
30280;DHT22;17097;50.916;5.344;2023-12-20T15:16:49;9.50;99.90
30280;DHT22;17097;50.916;5.344;2023-12-20T15:19:17;9.50;99.90
30280;DHT22;17097;50.916;5.344;2023-12-20T15:21:43;9.60;99.90
30280;DHT22;17097;50.916;5.344;2023-12-20T15:24:11;9.60;99.90
30280;DHT22;17097;50.916;5.344;2023-12-20T15:26:42;9.70;99.90
30280;DHT22;17097;50.916;5.344;2023-12-20T15:29:11;9.70;99.90
30280;DHT22;17097;50.916;5.344;2023-12-20T15:31:44;9.90;99.90
30280;DHT22;17097;50.916;5.344;2023-12-20T15:34:10;10.00;99.90
30280;DHT22;17097;50.916;5.344;2023-12-20T15:36:37;10.00;99.90
30280;DHT22;17097;50.916;5.344;2023-12-20T15:39:03;10.00;99.90
30280;DHT22;17097;50.916;5.344;2023-12-20T15:41:29;9.90;99.90
30280;DHT22;17097;50.916;5.344;2023-12-20T15:43:55;9.90;99.90